sensor_id;sensor_type;location;lat;lon;timestamp;temperature;humidity
52543;DHT22;38449;52.696;6.186;2022-12-05T00:01:23;4.50;99.90
52543;DHT22;38449;52.696;6.186;2022-12-05T00:03:52;4.50;99.90
52543;DHT22;38449;52.696;6.186;2022-12-05T00:06:20;4.60;99.90
52543;DHT22;38449;52.696;6.186;2022-12-05T00:08:47;4.60;99.90
52543;DHT22;38449;52.696;6.186;2022-12-05T00:11:15;4.50;99.90
52543;DHT22;38449;52.696;6.186;2022-12-05T00:13:41;4.60;99.90
52543;DHT22;38449;52.696;6.186;2022-12-05T00:16:09;4.60;99.90
52543;DHT22;38449;52.696;6.186;2022-12-05T00:18:36;4.60;99.90
52543;DHT22;38449;52.696;6.186;2022-12-05T00:21:02;4.60;99.90
52543;DHT22;38449;52.696;6.186;2022-12-05T00:23:28;4.60;99.90
52543;DHT22;38449;52.696;6.186;2022-12-05T00:25:53;4.60;99.90
52543;DHT22;38449;52.696;6.186;2022-12-05T00:28:19;4.50;99.90
52543;DHT22;38449;52.696;6.186;2022-12-05T00:30:46;4.50;99.90
52543;DHT22;38449;52.696;6.186;2022-12-05T00:33:11;4.50;99.90
52543;DHT22;38449;52.696;6.186;2022-12-05T00:35:38;4.60;99.90
52543;DHT22;38449;52.696;6.186;2022-12-05T00:38:04;4.60;99.90
52543;DHT22;38449;52.696;6.186;2022-12-05T00:40:29;4.60;99.90
52543;DHT22;38449;52.696;6.186;2022-12-05T00:42:56;4.60;99.90
52543;DHT22;38449;52.696;6.186;2022-12-05T00:45:22;4.60;99.90
52543;DHT22;38449;52.696;6.186;2022-12-05T00:47:48;4.50;99.90
52543;DHT22;38449;52.696;6.186;2022-12-05T00:50:14;4.60;99.90
52543;DHT22;38449;52.696;6.186;2022-12-05T00:52:41;4.60;99.90
52543;DHT22;38449;52.696;6.186;2022-12-05T00:55:07;4.60;99.90
52543;DHT22;38449;52.696;6.186;2022-12-05T00:57:33;4.70;99.90
52543;DHT22;38449;52.696;6.186;2022-12-05T00:59:58;4.70;99.90
52543;DHT22;38449;52.696;6.186;2022-12-05T01:02:24;4.60;99.90
52543;DHT22;38449;52.696;6.186;2022-12-05T01:04:51;4.70;99.90
52543;DHT22;38449;52.696;6.186;2022-12-05T01:07:18;4.70;99.90
52543;DHT22;38449;52.696;6.186;2022-12-05T01:09:43;4.70;99.90
52543;DHT22;38449;52.696;6.186;2022-12-05T01:12:09;4.80;99.90
52543;DHT22;38449;52.696;6.186;2022-12-05T01:14:36;4.80;99.90
52543;DHT22;38449;52.696;6.186;2022-12-05T01:17:01;4.80;99.90
52543;DHT22;38449;52.696;6.186;2022-12-05T01:19:29;4.90;99.90
52543;DHT22;38449;52.696;6.186;2022-12-05T01:21:56;4.80;99.90
52543;DHT22;38449;52.696;6.186;2022-12-05T01:24:23;4.80;99.90
52543;DHT22;38449;52.696;6.186;2022-12-05T01:26:49;4.80;99.90
52543;DHT22;38449;52.696;6.186;2022-12-05T01:29:17;4.90;99.90
52543;DHT22;38449;52.696;6.186;2022-12-05T01:31:43;4.90;99.90
52543;DHT22;38449;52.696;6.186;2022-12-05T01:34:13;4.90;99.90
52543;DHT22;38449;52.696;6.186;2022-12-05T01:36:39;4.90;99.90
52543;DHT22;38449;52.696;6.186;2022-12-05T01:39:06;4.90;99.90
52543;DHT22;38449;52.696;6.186;2022-12-05T01:41:37;5.00;99.90
52543;DHT22;38449;52.696;6.186;2022-12-05T01:46:34;4.90;99.90
52543;DHT22;38449;52.696;6.186;2022-12-05T01:49:14;5.00;99.90
52543;DHT22;38449;52.696;6.186;2022-12-05T01:51:52;5.00;99.90
52543;DHT22;38449;52.696;6.186;2022-12-05T01:54:20;4.90;99.90
52543;DHT22;38449;52.696;6.186;2022-12-05T01:56:49;4.90;99.90
52543;DHT22;38449;52.696;6.186;2022-12-05T01:59:18;4.90;99.90
52543;DHT22;38449;52.696;6.186;2022-12-05T02:01:45;4.90;99.90
52543;DHT22;38449;52.696;6.186;2022-12-05T02:04:11;4.90;99.90
52543;DHT22;38449;52.696;6.186;2022-12-05T02:06:38;4.80;99.90
52543;DHT22;38449;52.696;6.186;2022-12-05T02:09:04;4.90;99.90
52543;DHT22;38449;52.696;6.186;2022-12-05T02:12:01;4.90;99.90
52543;DHT22;38449;52.696;6.186;2022-12-05T02:17:11;5.00;99.90
52543;DHT22;38449;52.696;6.186;2022-12-05T02:37:30;4.90;99.90
52543;DHT22;38449;52.696;6.186;2022-12-05T02:43:12;4.90;99.90
52543;DHT22;38449;52.696;6.186;2022-12-05T02:45:41;5.00;99.90
52543;DHT22;38449;52.696;6.186;2022-12-05T02:48:11;4.90;99.90
52543;DHT22;38449;52.696;6.186;2022-12-05T02:50:38;4.90;99.90
52543;DHT22;38449;52.696;6.186;2022-12-05T02:53:11;4.90;99.90
52543;DHT22;38449;52.696;6.186;2022-12-05T02:55:39;5.00;99.90
52543;DHT22;38449;52.696;6.186;2022-12-05T02:58:10;4.90;99.90
52543;DHT22;38449;52.696;6.186;2022-12-05T03:00:38;5.00;99.90
52543;DHT22;38449;52.696;6.186;2022-12-05T03:03:11;5.00;99.90
52543;DHT22;38449;52.696;6.186;2022-12-05T03:05:58;5.00;99.90
52543;DHT22;38449;52.696;6.186;2022-12-05T03:08:32;5.00;99.90
52543;DHT22;38449;52.696;6.186;2022-12-05T03:11:00;5.00;99.90
52543;DHT22;38449;52.696;6.186;2022-12-05T03:13:34;5.00;99.90
52543;DHT22;38449;52.696;6.186;2022-12-05T03:16:14;5.00;99.90
52543;DHT22;38449;52.696;6.186;2022-12-05T03:19:09;5.00;99.90
52543;DHT22;38449;52.696;6.186;2022-12-05T03:21:42;5.00;99.90
52543;DHT22;38449;52.696;6.186;2022-12-05T03:24:12;5.00;99.90
52543;DHT22;38449;52.696;6.186;2022-12-05T03:32:21;5.10;99.90
52543;DHT22;38449;52.696;6.186;2022-12-05T03:34:52;5.00;99.90
52543;DHT22;38449;52.696;6.186;2022-12-05T03:37:49;5.10;99.90
52543;DHT22;38449;52.696;6.186;2022-12-05T03:40:30;5.10;99.90
52543;DHT22;38449;52.696;6.186;2022-12-05T03:43:05;5.10;99.90
52543;DHT22;38449;52.696;6.186;2022-12-05T03:45:44;5.10;99.90
52543;DHT22;38449;52.696;6.186;2022-12-05T03:48:26;5.10;99.90
52543;DHT22;38449;52.696;6.186;2022-12-05T03:50:55;5.10;99.90
52543;DHT22;38449;52.696;6.186;2022-12-05T03:53:27;5.10;99.90
52543;DHT22;38449;52.696;6.186;2022-12-05T03:56:08;5.10;99.90
52543;DHT22;38449;52.696;6.186;2022-12-05T03:58:50;5.10;99.90
52543;DHT22;38449;52.696;6.186;2022-12-05T04:01:18;5.10;99.90
52543;DHT22;38449;52.696;6.186;2022-12-05T04:03:59;5.20;99.90
52543;DHT22;38449;52.696;6.186;2022-12-05T04:06:31;5.20;99.90
52543;DHT22;38449;52.696;6.186;2022-12-05T04:09:01;5.20;99.90
52543;DHT22;38449;52.696;6.186;2022-12-05T04:11:32;5.10;99.90
52543;DHT22;38449;52.696;6.186;2022-12-05T04:14:03;5.20;99.90
52543;DHT22;38449;52.696;6.186;2022-12-05T04:16:42;5.30;99.90
52543;DHT22;38449;52.696;6.186;2022-12-05T04:19:50;5.30;99.90
52543;DHT22;38449;52.696;6.186;2022-12-05T04:22:38;5.10;99.90
52543;DHT22;38449;52.696;6.186;2022-12-05T04:25:09;5.20;99.90
52543;DHT22;38449;52.696;6.186;2022-12-05T04:31:10;5.30;99.90
52543;DHT22;38449;52.696;6.186;2022-12-05T04:38:54;5.20;99.90
52543;DHT22;38449;52.696;6.186;2022-12-05T04:41:33;5.30;99.90
52543;DHT22;38449;52.696;6.186;2022-12-05T04:44:04;5.20;99.90
52543;DHT22;38449;52.696;6.186;2022-12-05T04:46:32;5.30;99.90
52543;DHT22;38449;52.696;6.186;2022-12-05T04:49:06;5.30;99.90
52543;DHT22;38449;52.696;6.186;2022-12-05T04:51:34;5.40;99.90
52543;DHT22;38449;52.696;6.186;2022-12-05T04:54:12;5.40;99.90
52543;DHT22;38449;52.696;6.186;2022-12-05T04:56:40;5.30;99.90
52543;DHT22;38449;52.696;6.186;2022-12-05T04:59:08;5.40;99.90
52543;DHT22;38449;52.696;6.186;2022-12-05T05:01:47;5.30;99.90
52543;DHT22;38449;52.696;6.186;2022-12-05T05:04:22;5.40;99.90
52543;DHT22;38449;52.696;6.186;2022-12-05T05:06:50;5.50;99.90
52543;DHT22;38449;52.696;6.186;2022-12-05T05:09:15;5.40;99.90
52543;DHT22;38449;52.696;6.186;2022-12-05T05:11:41;5.30;99.90
52543;DHT22;38449;52.696;6.186;2022-12-05T05:14:08;5.40;99.90
52543;DHT22;38449;52.696;6.186;2022-12-05T05:16:38;5.40;99.90
52543;DHT22;38449;52.696;6.186;2022-12-05T05:19:05;5.40;99.90
52543;DHT22;38449;52.696;6.186;2022-12-05T05:21:33;5.40;99.90
52543;DHT22;38449;52.696;6.186;2022-12-05T05:24:00;5.50;99.90
52543;DHT22;38449;52.696;6.186;2022-12-05T05:26:27;5.60;99.90
52543;DHT22;38449;52.696;6.186;2022-12-05T05:28:53;5.40;99.90
52543;DHT22;38449;52.696;6.186;2022-12-05T05:31:20;5.40;99.90
52543;DHT22;38449;52.696;6.186;2022-12-05T05:33:50;5.50;99.90
52543;DHT22;38449;52.696;6.186;2022-12-05T05:36:16;5.50;99.90
52543;DHT22;38449;52.696;6.186;2022-12-05T05:38:45;5.60;99.90
52543;DHT22;38449;52.696;6.186;2022-12-05T05:41:28;5.60;99.90
52543;DHT22;38449;52.696;6.186;2022-12-05T05:43:54;5.60;99.90
52543;DHT22;38449;52.696;6.186;2022-12-05T05:46:23;5.60;99.90
52543;DHT22;38449;52.696;6.186;2022-12-05T05:48:50;5.60;99.90
52543;DHT22;38449;52.696;6.186;2022-12-05T05:51:17;5.70;99.90
52543;DHT22;38449;52.696;6.186;2022-12-05T05:53:43;5.60;99.90
52543;DHT22;38449;52.696;6.186;2022-12-05T05:56:12;5.70;99.90
52543;DHT22;38449;52.696;6.186;2022-12-05T05:58:39;5.70;99.90
52543;DHT22;38449;52.696;6.186;2022-12-05T06:01:10;5.70;99.90
52543;DHT22;38449;52.696;6.186;2022-12-05T06:03:38;5.60;99.90
52543;DHT22;38449;52.696;6.186;2022-12-05T06:06:07;5.60;99.90
52543;DHT22;38449;52.696;6.186;2022-12-05T06:08:36;5.70;99.90
52543;DHT22;38449;52.696;6.186;2022-12-05T06:11:09;5.60;99.90
52543;DHT22;38449;52.696;6.186;2022-12-05T06:13:37;5.70;99.90
52543;DHT22;38449;52.696;6.186;2022-12-05T06:16:07;5.70;99.90
52543;DHT22;38449;52.696;6.186;2022-12-05T06:18:34;5.60;99.90
52543;DHT22;38449;52.696;6.186;2022-12-05T06:21:01;5.60;99.90
52543;DHT22;38449;52.696;6.186;2022-12-05T06:23:28;5.60;99.90
52543;DHT22;38449;52.696;6.186;2022-12-05T06:25:55;5.60;99.90
52543;DHT22;38449;52.696;6.186;2022-12-05T06:28:22;5.70;99.90
52543;DHT22;38449;52.696;6.186;2022-12-05T06:30:48;5.70;99.90
52543;DHT22;38449;52.696;6.186;2022-12-05T06:33:15;5.70;99.90
52543;DHT22;38449;52.696;6.186;2022-12-05T06:35:44;5.70;99.90
52543;DHT22;38449;52.696;6.186;2022-12-05T06:38:10;5.60;99.90
52543;DHT22;38449;52.696;6.186;2022-12-05T06:40:43;6.00;99.90
52543;DHT22;38449;52.696;6.186;2022-12-05T06:43:09;5.80;99.90
52543;DHT22;38449;52.696;6.186;2022-12-05T06:45:38;5.80;99.90
52543;DHT22;38449;52.696;6.186;2022-12-05T06:48:04;5.80;99.90
52543;DHT22;38449;52.696;6.186;2022-12-05T06:50:29;5.80;99.90
52543;DHT22;38449;52.696;6.186;2022-12-05T06:52:55;5.70;99.90
52543;DHT22;38449;52.696;6.186;2022-12-05T06:55:21;5.80;99.90
52543;DHT22;38449;52.696;6.186;2022-12-05T06:57:46;5.80;99.90
52543;DHT22;38449;52.696;6.186;2022-12-05T07:00:12;5.70;99.90
52543;DHT22;38449;52.696;6.186;2022-12-05T07:02:57;5.70;99.90
52543;DHT22;38449;52.696;6.186;2022-12-05T07:05:24;5.70;99.90
52543;DHT22;38449;52.696;6.186;2022-12-05T07:07:49;5.70;99.90
52543;DHT22;38449;52.696;6.186;2022-12-05T07:10:15;5.80;99.90
52543;DHT22;38449;52.696;6.186;2022-12-05T07:12:41;5.80;99.90
52543;DHT22;38449;52.696;6.186;2022-12-05T07:15:07;5.90;99.90
52543;DHT22;38449;52.696;6.186;2022-12-05T07:17:35;5.80;99.90
52543;DHT22;38449;52.696;6.186;2022-12-05T07:20:03;5.90;99.90
52543;DHT22;38449;52.696;6.186;2022-12-05T07:22:29;5.80;99.90
52543;DHT22;38449;52.696;6.186;2022-12-05T07:24:54;5.80;99.90
52543;DHT22;38449;52.696;6.186;2022-12-05T07:27:20;5.90;99.90
52543;DHT22;38449;52.696;6.186;2022-12-05T07:29:45;5.90;99.90
52543;DHT22;38449;52.696;6.186;2022-12-05T07:32:11;6.00;99.90
52543;DHT22;38449;52.696;6.186;2022-12-05T07:34:37;6.00;99.90
52543;DHT22;38449;52.696;6.186;2022-12-05T07:37:03;5.90;99.90
52543;DHT22;38449;52.696;6.186;2022-12-05T07:39:30;5.90;99.90
52543;DHT22;38449;52.696;6.186;2022-12-05T07:41:56;6.00;99.90
52543;DHT22;38449;52.696;6.186;2022-12-05T07:44:23;5.90;99.90
52543;DHT22;38449;52.696;6.186;2022-12-05T07:46:48;5.90;99.90
52543;DHT22;38449;52.696;6.186;2022-12-05T07:49:15;5.90;99.90
52543;DHT22;38449;52.696;6.186;2022-12-05T07:51:46;5.90;99.90
52543;DHT22;38449;52.696;6.186;2022-12-05T07:54:11;5.80;99.90
52543;DHT22;38449;52.696;6.186;2022-12-05T07:56:37;5.80;99.90
52543;DHT22;38449;52.696;6.186;2022-12-05T07:59:03;5.80;99.90
52543;DHT22;38449;52.696;6.186;2022-12-05T08:01:29;5.70;99.90
52543;DHT22;38449;52.696;6.186;2022-12-05T08:03:56;5.80;99.90
52543;DHT22;38449;52.696;6.186;2022-12-05T08:06:25;5.80;99.90
52543;DHT22;38449;52.696;6.186;2022-12-05T08:08:52;5.80;99.90
52543;DHT22;38449;52.696;6.186;2022-12-05T08:11:22;5.90;99.90
52543;DHT22;38449;52.696;6.186;2022-12-05T08:13:49;5.80;99.90
52543;DHT22;38449;52.696;6.186;2022-12-05T08:16:18;5.80;99.90
52543;DHT22;38449;52.696;6.186;2022-12-05T08:18:44;5.80;99.90
52543;DHT22;38449;52.696;6.186;2022-12-05T08:21:15;5.90;99.90
52543;DHT22;38449;52.696;6.186;2022-12-05T08:23:41;5.90;99.90
52543;DHT22;38449;52.696;6.186;2022-12-05T08:26:08;5.90;99.90
52543;DHT22;38449;52.696;6.186;2022-12-05T08:28:35;5.90;99.90
52543;DHT22;38449;52.696;6.186;2022-12-05T08:31:06;6.00;99.90
52543;DHT22;38449;52.696;6.186;2022-12-05T08:33:32;6.00;99.90
52543;DHT22;38449;52.696;6.186;2022-12-05T08:36:00;6.00;99.90
52543;DHT22;38449;52.696;6.186;2022-12-05T08:38:26;6.00;99.90
52543;DHT22;38449;52.696;6.186;2022-12-05T08:40:51;6.00;99.90
52543;DHT22;38449;52.696;6.186;2022-12-05T08:43:17;6.00;99.90
52543;DHT22;38449;52.696;6.186;2022-12-05T08:45:52;5.90;99.90
52543;DHT22;38449;52.696;6.186;2022-12-05T08:48:18;6.00;99.90
52543;DHT22;38449;52.696;6.186;2022-12-05T08:50:44;6.00;99.90
52543;DHT22;38449;52.696;6.186;2022-12-05T08:53:10;6.00;99.90
52543;DHT22;38449;52.696;6.186;2022-12-05T08:55:36;6.00;99.90
52543;DHT22;38449;52.696;6.186;2022-12-05T08:58:02;6.00;99.90
52543;DHT22;38449;52.696;6.186;2022-12-05T09:00:28;6.00;99.90
52543;DHT22;38449;52.696;6.186;2022-12-05T09:02:57;6.10;99.90
52543;DHT22;38449;52.696;6.186;2022-12-05T09:05:24;6.00;99.90
52543;DHT22;38449;52.696;6.186;2022-12-05T09:07:49;6.10;99.90
52543;DHT22;38449;52.696;6.186;2022-12-05T09:10:15;6.00;99.90
52543;DHT22;38449;52.696;6.186;2022-12-05T09:12:42;6.00;99.90
52543;DHT22;38449;52.696;6.186;2022-12-05T09:15:10;6.00;99.90
52543;DHT22;38449;52.696;6.186;2022-12-05T09:17:38;6.00;99.90
52543;DHT22;38449;52.696;6.186;2022-12-05T09:20:07;6.10;99.90
52543;DHT22;38449;52.696;6.186;2022-12-05T09:22:33;6.10;99.90
52543;DHT22;38449;52.696;6.186;2022-12-05T09:24:59;6.00;99.90
52543;DHT22;38449;52.696;6.186;2022-12-05T09:27:28;6.00;99.90
52543;DHT22;38449;52.696;6.186;2022-12-05T09:29:54;6.00;99.90
52543;DHT22;38449;52.696;6.186;2022-12-05T09:32:21;6.00;99.90
52543;DHT22;38449;52.696;6.186;2022-12-05T09:34:46;6.00;99.90
52543;DHT22;38449;52.696;6.186;2022-12-05T09:37:12;6.10;99.90
52543;DHT22;38449;52.696;6.186;2022-12-05T09:39:37;6.10;99.90
52543;DHT22;38449;52.696;6.186;2022-12-05T09:49:59;6.10;99.90
52543;DHT22;38449;52.696;6.186;2022-12-05T09:52:37;6.10;99.90
52543;DHT22;38449;52.696;6.186;2022-12-05T09:55:12;6.10;99.90
52543;DHT22;38449;52.696;6.186;2022-12-05T09:57:44;6.10;99.90
52543;DHT22;38449;52.696;6.186;2022-12-05T10:00:12;6.20;99.90
52543;DHT22;38449;52.696;6.186;2022-12-05T10:02:40;6.10;99.90
52543;DHT22;38449;52.696;6.186;2022-12-05T10:05:16;6.00;99.90
52543;DHT22;38449;52.696;6.186;2022-12-05T10:10:27;5.90;99.90
52543;DHT22;38449;52.696;6.186;2022-12-05T10:15:49;6.00;99.90
52543;DHT22;38449;52.696;6.186;2022-12-05T10:18:36;6.00;99.90
52543;DHT22;38449;52.696;6.186;2022-12-05T10:21:29;6.00;99.90
52543;DHT22;38449;52.696;6.186;2022-12-05T10:24:02;6.00;99.90
52543;DHT22;38449;52.696;6.186;2022-12-05T10:26:43;6.00;99.90
52543;DHT22;38449;52.696;6.186;2022-12-05T10:31:46;5.90;99.90
52543;DHT22;38449;52.696;6.186;2022-12-05T10:34:36;5.90;99.90
52543;DHT22;38449;52.696;6.186;2022-12-05T10:39:43;5.80;99.90
52543;DHT22;38449;52.696;6.186;2022-12-05T10:42:20;5.90;99.90
52543;DHT22;38449;52.696;6.186;2022-12-05T10:44:50;5.80;99.90
52543;DHT22;38449;52.696;6.186;2022-12-05T10:47:19;5.90;99.90
52543;DHT22;38449;52.696;6.186;2022-12-05T10:49:46;5.90;99.90
52543;DHT22;38449;52.696;6.186;2022-12-05T10:52:13;5.90;99.90
52543;DHT22;38449;52.696;6.186;2022-12-05T10:54:46;5.90;99.90
52543;DHT22;38449;52.696;6.186;2022-12-05T10:57:21;5.90;99.90
52543;DHT22;38449;52.696;6.186;2022-12-05T10:59:49;5.90;99.90
52543;DHT22;38449;52.696;6.186;2022-12-05T11:04:53;5.80;99.90
52543;DHT22;38449;52.696;6.186;2022-12-05T11:07:31;5.80;99.90
52543;DHT22;38449;52.696;6.186;2022-12-05T11:10:02;5.90;99.90
52543;DHT22;38449;52.696;6.186;2022-12-05T11:17:39;5.90;99.90
52543;DHT22;38449;52.696;6.186;2022-12-05T11:22:49;5.80;99.90
52543;DHT22;38449;52.696;6.186;2022-12-05T11:27:58;5.90;99.90
52543;DHT22;38449;52.696;6.186;2022-12-05T11:30:26;5.80;99.90
52543;DHT22;38449;52.696;6.186;2022-12-05T11:35:41;5.90;99.90
52543;DHT22;38449;52.696;6.186;2022-12-05T11:38:10;5.90;99.90
52543;DHT22;38449;52.696;6.186;2022-12-05T11:40:50;6.00;99.90
52543;DHT22;38449;52.696;6.186;2022-12-05T11:46:47;5.80;99.90
52543;DHT22;38449;52.696;6.186;2022-12-05T11:52:25;5.90;99.90
52543;DHT22;38449;52.696;6.186;2022-12-05T11:55:09;5.80;99.90
52543;DHT22;38449;52.696;6.186;2022-12-05T12:01:04;5.80;99.90
52543;DHT22;38449;52.696;6.186;2022-12-05T12:06:32;5.90;99.90
52543;DHT22;38449;52.696;6.186;2022-12-05T12:11:58;5.90;99.90
52543;DHT22;38449;52.696;6.186;2022-12-05T12:22:57;6.00;99.90
52543;DHT22;38449;52.696;6.186;2022-12-05T12:36:52;5.90;99.90
52543;DHT22;38449;52.696;6.186;2022-12-05T12:42:23;5.80;99.90
52543;DHT22;38449;52.696;6.186;2022-12-05T12:44:56;5.90;99.90
52543;DHT22;38449;52.696;6.186;2022-12-05T12:50:20;5.90;99.90
52543;DHT22;38449;52.696;6.186;2022-12-05T12:53:09;5.90;99.90
52543;DHT22;38449;52.696;6.186;2022-12-05T12:56:08;5.90;99.90
52543;DHT22;38449;52.696;6.186;2022-12-05T12:58:45;5.80;99.90
52543;DHT22;38449;52.696;6.186;2022-12-05T13:04:18;5.90;99.90
52543;DHT22;38449;52.696;6.186;2022-12-05T13:09:40;5.90;99.90
52543;DHT22;38449;52.696;6.186;2022-12-05T13:12:14;6.00;99.90
52543;DHT22;38449;52.696;6.186;2022-12-05T13:14:50;6.00;99.90
52543;DHT22;38449;52.696;6.186;2022-12-05T13:17:19;6.10;99.90
52543;DHT22;38449;52.696;6.186;2022-12-05T13:19:48;6.00;99.90
52543;DHT22;38449;52.696;6.186;2022-12-05T13:22:16;5.90;99.90
52543;DHT22;38449;52.696;6.186;2022-12-05T13:24:42;6.00;99.90
52543;DHT22;38449;52.696;6.186;2022-12-05T13:27:14;5.90;99.90
52543;DHT22;38449;52.696;6.186;2022-12-05T13:29:48;6.10;99.90
52543;DHT22;38449;52.696;6.186;2022-12-05T13:32:23;6.00;99.90
52543;DHT22;38449;52.696;6.186;2022-12-05T13:34:50;6.10;99.90
52543;DHT22;38449;52.696;6.186;2022-12-05T13:37:26;6.00;99.90
52543;DHT22;38449;52.696;6.186;2022-12-05T13:40:30;6.10;99.90
52543;DHT22;38449;52.696;6.186;2022-12-05T13:43:19;5.90;99.90
52543;DHT22;38449;52.696;6.186;2022-12-05T13:46:04;6.00;99.90
52543;DHT22;38449;52.696;6.186;2022-12-05T13:48:34;6.00;99.90
52543;DHT22;38449;52.696;6.186;2022-12-05T13:51:13;6.00;99.90
52543;DHT22;38449;52.696;6.186;2022-12-05T13:53:47;6.10;99.90
52543;DHT22;38449;52.696;6.186;2022-12-05T13:58:51;6.10;99.90
52543;DHT22;38449;52.696;6.186;2022-12-05T14:04:07;6.10;99.90
52543;DHT22;38449;52.696;6.186;2022-12-05T14:17:29;6.00;99.90
52543;DHT22;38449;52.696;6.186;2022-12-05T14:29:15;6.10;99.90
52543;DHT22;38449;52.696;6.186;2022-12-05T14:32:02;6.10;99.90
52543;DHT22;38449;52.696;6.186;2022-12-05T14:34:34;6.10;99.90
52543;DHT22;38449;52.696;6.186;2022-12-05T14:37:25;6.10;99.90
52543;DHT22;38449;52.696;6.186;2022-12-05T14:39:57;6.10;99.90
52543;DHT22;38449;52.696;6.186;2022-12-05T14:44:52;6.10;99.90
52543;DHT22;38449;52.696;6.186;2022-12-05T14:47:31;6.10;99.90
52543;DHT22;38449;52.696;6.186;2022-12-05T14:53:29;6.00;99.90
52543;DHT22;38449;52.696;6.186;2022-12-05T14:56:03;5.90;99.90
52543;DHT22;38449;52.696;6.186;2022-12-05T15:01:28;5.90;99.90
52543;DHT22;38449;52.696;6.186;2022-12-05T15:07:08;6.10;99.90
52543;DHT22;38449;52.696;6.186;2022-12-05T15:12:27;6.10;99.90
52543;DHT22;38449;52.696;6.186;2022-12-05T15:17:23;6.00;99.90
52543;DHT22;38449;52.696;6.186;2022-12-05T15:19:56;6.00;99.90
52543;DHT22;38449;52.696;6.186;2022-12-05T15:22:25;5.90;99.90
52543;DHT22;38449;52.696;6.186;2022-12-05T15:24:52;5.90;99.90
52543;DHT22;38449;52.696;6.186;2022-12-05T15:27:18;6.00;99.90
52543;DHT22;38449;52.696;6.186;2022-12-05T15:29:44;6.00;99.90
52543;DHT22;38449;52.696;6.186;2022-12-05T15:37:55;5.90;99.90
52543;DHT22;38449;52.696;6.186;2022-12-05T15:40:23;5.90;99.90
52543;DHT22;38449;52.696;6.186;2022-12-05T15:42:55;5.90;99.90
52543;DHT22;38449;52.696;6.186;2022-12-05T15:45:30;5.80;99.90
52543;DHT22;38449;52.696;6.186;2022-12-05T15:48:11;5.80;99.90
52543;DHT22;38449;52.696;6.186;2022-12-05T15:50:46;5.80;99.90
52543;DHT22;38449;52.696;6.186;2022-12-05T15:53:26;5.80;99.90
52543;DHT22;38449;52.696;6.186;2022-12-05T15:56:02;5.80;99.90
52543;DHT22;38449;52.696;6.186;2022-12-05T16:01:25;5.80;99.90
52543;DHT22;38449;52.696;6.186;2022-12-05T16:06:41;5.80;99.90
52543;DHT22;38449;52.696;6.186;2022-12-05T16:09:13;5.80;99.90
52543;DHT22;38449;52.696;6.186;2022-12-05T16:11:52;5.80;99.90
52543;DHT22;38449;52.696;6.186;2022-12-05T16:14:19;5.90;99.90
52543;DHT22;38449;52.696;6.186;2022-12-05T16:16:45;6.10;99.90
52543;DHT22;38449;52.696;6.186;2022-12-05T16:19:16;6.40;99.90
52543;DHT22;38449;52.696;6.186;2022-12-05T16:21:58;6.50;99.90
52543;DHT22;38449;52.696;6.186;2022-12-05T16:24:29;6.50;99.90
52543;DHT22;38449;52.696;6.186;2022-12-05T16:32:39;7.00;99.90
52543;DHT22;38449;52.696;6.186;2022-12-05T16:43:27;6.90;99.90
52543;DHT22;38449;52.696;6.186;2022-12-05T16:54:34;6.90;99.90
52543;DHT22;38449;52.696;6.186;2022-12-05T16:57:00;6.90;99.90
52543;DHT22;38449;52.696;6.186;2022-12-05T16:59:35;6.80;99.90
52543;DHT22;38449;52.696;6.186;2022-12-05T17:02:02;6.80;99.90
52543;DHT22;38449;52.696;6.186;2022-12-05T17:04:28;6.60;99.90
52543;DHT22;38449;52.696;6.186;2022-12-05T17:06:54;6.50;99.90
52543;DHT22;38449;52.696;6.186;2022-12-05T17:09:19;6.40;99.90
52543;DHT22;38449;52.696;6.186;2022-12-05T17:11:46;6.40;99.90
52543;DHT22;38449;52.696;6.186;2022-12-05T17:14:14;6.30;99.90
52543;DHT22;38449;52.696;6.186;2022-12-05T17:16:41;6.20;99.90
52543;DHT22;38449;52.696;6.186;2022-12-05T17:19:07;6.30;99.90
52543;DHT22;38449;52.696;6.186;2022-12-05T17:21:33;6.20;99.90
52543;DHT22;38449;52.696;6.186;2022-12-05T17:24:00;6.20;99.90
52543;DHT22;38449;52.696;6.186;2022-12-05T17:26:25;6.20;99.90
52543;DHT22;38449;52.696;6.186;2022-12-05T17:28:51;6.10;99.90
52543;DHT22;38449;52.696;6.186;2022-12-05T17:31:19;6.10;99.90
52543;DHT22;38449;52.696;6.186;2022-12-05T17:33:46;6.10;99.90
52543;DHT22;38449;52.696;6.186;2022-12-05T17:36:12;6.10;99.90
52543;DHT22;38449;52.696;6.186;2022-12-05T17:38:38;6.00;99.90
52543;DHT22;38449;52.696;6.186;2022-12-05T17:41:04;6.00;99.90
52543;DHT22;38449;52.696;6.186;2022-12-05T17:43:35;6.00;99.90
52543;DHT22;38449;52.696;6.186;2022-12-05T17:46:02;6.00;99.90
52543;DHT22;38449;52.696;6.186;2022-12-05T17:48:27;6.00;99.90
52543;DHT22;38449;52.696;6.186;2022-12-05T17:50:53;6.00;99.90
52543;DHT22;38449;52.696;6.186;2022-12-05T17:53:22;6.10;99.90
52543;DHT22;38449;52.696;6.186;2022-12-05T17:55:49;6.10;99.90
52543;DHT22;38449;52.696;6.186;2022-12-05T17:58:15;6.10;99.90
52543;DHT22;38449;52.696;6.186;2022-12-05T18:00:42;6.10;99.90
52543;DHT22;38449;52.696;6.186;2022-12-05T18:03:13;6.00;99.90
52543;DHT22;38449;52.696;6.186;2022-12-05T18:05:39;6.00;99.90
52543;DHT22;38449;52.696;6.186;2022-12-05T18:08:05;6.00;99.90
52543;DHT22;38449;52.696;6.186;2022-12-05T18:10:30;6.00;99.90
52543;DHT22;38449;52.696;6.186;2022-12-05T18:12:56;5.90;99.90
52543;DHT22;38449;52.696;6.186;2022-12-05T18:15:21;6.00;99.90
52543;DHT22;38449;52.696;6.186;2022-12-05T18:17:47;6.00;99.90
52543;DHT22;38449;52.696;6.186;2022-12-05T18:20:14;6.10;99.90
52543;DHT22;38449;52.696;6.186;2022-12-05T18:22:40;5.90;99.90
52543;DHT22;38449;52.696;6.186;2022-12-05T18:25:06;6.00;99.90
52543;DHT22;38449;52.696;6.186;2022-12-05T18:27:34;6.00;99.90
52543;DHT22;38449;52.696;6.186;2022-12-05T18:29:59;6.00;99.90
52543;DHT22;38449;52.696;6.186;2022-12-05T18:32:25;6.00;99.90
52543;DHT22;38449;52.696;6.186;2022-12-05T18:34:51;6.00;99.90
52543;DHT22;38449;52.696;6.186;2022-12-05T18:37:18;6.10;99.90
52543;DHT22;38449;52.696;6.186;2022-12-05T18:39:49;6.10;99.90
52543;DHT22;38449;52.696;6.186;2022-12-05T18:42:15;6.10;99.90
52543;DHT22;38449;52.696;6.186;2022-12-05T18:44:41;5.90;99.90
52543;DHT22;38449;52.696;6.186;2022-12-05T18:47:07;6.00;99.90
52543;DHT22;38449;52.696;6.186;2022-12-05T18:49:35;6.00;99.90
52543;DHT22;38449;52.696;6.186;2022-12-05T18:52:02;6.00;99.90
52543;DHT22;38449;52.696;6.186;2022-12-05T18:54:29;6.00;99.90
52543;DHT22;38449;52.696;6.186;2022-12-05T18:56:55;6.00;99.90
52543;DHT22;38449;52.696;6.186;2022-12-05T18:59:22;6.00;99.90
52543;DHT22;38449;52.696;6.186;2022-12-05T19:01:48;6.00;99.90
52543;DHT22;38449;52.696;6.186;2022-12-05T19:04:16;6.00;99.90
52543;DHT22;38449;52.696;6.186;2022-12-05T19:06:53;6.00;99.90
52543;DHT22;38449;52.696;6.186;2022-12-05T19:09:22;5.90;99.90
52543;DHT22;38449;52.696;6.186;2022-12-05T19:11:51;5.90;99.90
52543;DHT22;38449;52.696;6.186;2022-12-05T19:14:19;5.90;99.90
52543;DHT22;38449;52.696;6.186;2022-12-05T19:16:48;6.00;99.90
52543;DHT22;38449;52.696;6.186;2022-12-05T19:19:15;5.90;99.90
52543;DHT22;38449;52.696;6.186;2022-12-05T19:21:42;5.90;99.90